createdAt,value
2022-12-13T00:01:26.729Z,20.20
2022-12-13T00:03:55.048Z,20.20
2022-12-13T00:06:21.874Z,20.20
2022-12-13T00:08:48.747Z,20.20
2022-12-13T00:11:15.852Z,20.20
2022-12-13T00:13:43.625Z,20.20
2022-12-13T00:16:13.713Z,20.20
2022-12-13T00:18:40.469Z,20.20
2022-12-13T00:21:10.022Z,20.20
2022-12-13T00:23:36.736Z,20.20
2022-12-13T00:26:05.243Z,20.20
2022-12-13T00:28:32.403Z,20.20
2022-12-13T00:31:19.684Z,20.20
2022-12-13T00:33:47.315Z,20.20
2022-12-13T00:36:14.315Z,20.10
2022-12-13T00:38:41.084Z,20.10
2022-12-13T00:41:16.298Z,20.10
2022-12-13T00:43:43.427Z,20.10
2022-12-13T00:46:19.181Z,20.10
2022-12-13T00:48:53.460Z,20.10
2022-12-13T00:51:21.856Z,20.10
2022-12-13T00:53:49.053Z,20.10
2022-12-13T00:56:21.377Z,20.10
2022-12-13T00:58:52.073Z,20.10
2022-12-13T01:01:21.752Z,20.10
2022-12-13T01:03:48.538Z,20.00
2022-12-13T01:06:19.106Z,20.00
2022-12-13T01:08:46.652Z,20.10
2022-12-13T01:11:13.954Z,20.10
2022-12-13T01:13:41.306Z,20.00
2022-12-13T01:16:10.419Z,20.00
2022-12-13T01:18:37.626Z,20.00
2022-12-13T01:21:17.321Z,20.10
2022-12-13T01:23:44.612Z,20.00
2022-12-13T01:26:14.570Z,20.00
2022-12-13T01:28:41.745Z,20.00
2022-12-13T01:31:12.228Z,20.00
2022-12-13T01:33:39.688Z,20.00
2022-12-13T01:36:09.645Z,20.00
2022-12-13T01:38:38.109Z,20.00
2022-12-13T01:41:17.032Z,20.00
2022-12-13T01:43:44.819Z,20.00
2022-12-13T01:46:12.228Z,20.00
2022-12-13T01:48:47.527Z,20.00
2022-12-13T01:51:17.408Z,20.00
2022-12-13T01:53:46.847Z,20.00
2022-12-13T01:56:21.032Z,20.00
2022-12-13T01:58:49.345Z,20.00
2022-12-13T02:01:17.128Z,20.00
2022-12-13T02:03:45.312Z,20.00
2022-12-13T02:06:21.440Z,20.00
2022-12-13T02:08:48.151Z,20.00
2022-12-13T02:11:15.943Z,19.90
2022-12-13T02:13:42.687Z,20.00
2022-12-13T02:16:22.656Z,20.00
2022-12-13T02:19:15.393Z,20.00
2022-12-13T02:21:50.834Z,20.00
2022-12-13T02:25:00.636Z,19.90
2022-12-13T02:27:45.827Z,19.90
2022-12-13T02:30:20.804Z,19.90
2022-12-13T02:33:10.396Z,19.90
2022-12-13T02:35:52.817Z,19.90
2022-12-13T02:38:45.309Z,19.90
2022-12-13T02:41:17.376Z,19.90
2022-12-13T02:43:53.140Z,19.90
2022-12-13T02:46:32.085Z,19.90
2022-12-13T02:49:00.507Z,19.90
2022-12-13T02:51:28.904Z,19.90
2022-12-13T02:53:55.824Z,19.80
2022-12-13T02:56:22.565Z,19.80
2022-12-13T02:58:51.905Z,19.80
2022-12-13T03:02:09.457Z,19.80
2022-12-13T03:05:07.772Z,19.80
2022-12-13T03:07:42.229Z,19.80
2022-12-13T03:10:20.195Z,19.80
2022-12-13T03:13:24.290Z,19.80
2022-12-13T03:16:03.296Z,19.80
2022-12-13T03:18:33.066Z,19.80
2022-12-13T03:21:02.769Z,19.80
2022-12-13T03:23:30.043Z,19.80
2022-12-13T03:26:01.895Z,19.80
2022-12-13T03:28:28.863Z,19.80
2022-12-13T03:30:55.593Z,19.80
2022-12-13T03:33:22.785Z,19.70
2022-12-13T03:35:49.792Z,19.80
2022-12-13T03:38:21.844Z,19.80
2022-12-13T03:40:57.521Z,19.80
2022-12-13T03:43:24.802Z,19.70
2022-12-13T03:45:53.129Z,19.70
2022-12-13T03:48:22.713Z,19.70
2022-12-13T03:50:51.125Z,19.70
2022-12-13T03:53:22.813Z,19.70
2022-12-13T03:56:00.929Z,19.70
2022-12-13T03:58:36.840Z,19.70
2022-12-13T04:01:08.263Z,19.70
2022-12-13T04:03:35.894Z,19.70
2022-12-13T04:06:03.257Z,19.70
2022-12-13T04:08:30.068Z,19.70
2022-12-13T04:10:56.940Z,19.70
2022-12-13T04:13:32.597Z,19.70
2022-12-13T04:15:59.813Z,19.70
2022-12-13T04:18:26.598Z,19.70
2022-12-13T04:20:53.303Z,19.70
2022-12-13T04:23:19.998Z,19.60
2022-12-13T04:25:46.900Z,19.70
2022-12-13T04:28:22.161Z,19.70
2022-12-13T04:30:53.477Z,19.70
2022-12-13T04:33:22.195Z,19.70
2022-12-13T04:35:49.397Z,19.70
2022-12-13T04:38:16.469Z,19.70
2022-12-13T04:40:43.200Z,19.60
2022-12-13T04:43:10.211Z,19.70
2022-12-13T04:45:37.057Z,19.60
2022-12-13T04:48:04.228Z,19.60
2022-12-13T04:50:30.953Z,19.70
2022-12-13T04:52:57.643Z,19.60
2022-12-13T04:55:24.315Z,19.60
2022-12-13T04:57:51.019Z,19.60
2022-12-13T05:00:17.987Z,19.60
2022-12-13T05:02:44.752Z,19.60
2022-12-13T05:05:11.999Z,19.60
2022-12-13T05:07:42.323Z,19.60
2022-12-13T05:10:11.217Z,19.60
2022-12-13T05:12:38.040Z,19.60
2022-12-13T05:15:06.177Z,19.60
2022-12-13T05:17:33.011Z,19.60
2022-12-13T05:19:59.857Z,19.60
2022-12-13T05:22:27.047Z,19.60
2022-12-13T05:24:53.782Z,19.60
2022-12-13T05:27:25.611Z,19.60
2022-12-13T05:30:03.489Z,19.70
2022-12-13T05:32:44.144Z,19.60
2022-12-13T05:35:13.855Z,19.60
2022-12-13T05:37:41.105Z,19.60
2022-12-13T05:40:09.925Z,19.60
2022-12-13T05:42:39.545Z,19.60
2022-12-13T05:45:07.984Z,19.60
2022-12-13T05:47:34.867Z,19.60
2022-12-13T05:50:01.704Z,19.60
2022-12-13T05:52:31.008Z,19.60
2022-12-13T05:55:00.988Z,19.60
2022-12-13T05:57:28.325Z,19.60
2022-12-13T05:59:55.250Z,19.60
2022-12-13T06:02:22.399Z,19.60
2022-12-13T06:04:49.228Z,19.60
2022-12-13T06:07:15.951Z,19.60
2022-12-13T06:09:42.764Z,19.60
2022-12-13T06:12:31.046Z,19.60
2022-12-13T06:15:01.253Z,19.60
2022-12-13T06:17:36.066Z,19.60
2022-12-13T06:20:23.630Z,19.60
2022-12-13T06:22:51.984Z,19.60
2022-12-13T06:25:30.192Z,19.60
2022-12-13T06:28:00.900Z,19.60
2022-12-13T06:30:31.845Z,19.60
2022-12-13T06:32:58.741Z,19.60
2022-12-13T06:35:28.939Z,19.60
2022-12-13T06:38:01.724Z,19.60
2022-12-13T06:40:30.661Z,19.60
2022-12-13T06:42:57.861Z,19.60
2022-12-13T06:45:25.038Z,19.60
2022-12-13T06:47:51.767Z,19.60
2022-12-13T06:50:18.584Z,19.60
2022-12-13T06:52:46.587Z,19.60
2022-12-13T06:55:13.789Z,19.60
2022-12-13T06:57:41.138Z,19.60
2022-12-13T07:00:09.557Z,19.60
2022-12-13T07:02:38.059Z,19.60
2022-12-13T07:05:05.407Z,19.60
2022-12-13T07:07:32.692Z,19.60
2022-12-13T07:09:59.563Z,19.60
2022-12-13T07:12:26.532Z,19.60
2022-12-13T07:14:53.333Z,19.60
2022-12-13T07:17:32.295Z,19.60
2022-12-13T07:20:01.828Z,19.60
2022-12-13T07:22:28.590Z,19.60
2022-12-13T07:24:55.264Z,19.60
2022-12-13T07:27:21.968Z,19.60
2022-12-13T07:29:48.659Z,19.60
2022-12-13T07:32:15.349Z,19.60
2022-12-13T07:34:42.089Z,19.60
2022-12-13T07:37:09.477Z,19.60
2022-12-13T07:40:02.592Z,19.60
2022-12-13T07:42:30.470Z,19.60
2022-12-13T07:44:57.169Z,19.60
2022-12-13T07:47:24.003Z,19.60
2022-12-13T07:49:50.683Z,19.60
2022-12-13T07:52:17.466Z,19.60
2022-12-13T07:54:44.180Z,19.60
2022-12-13T07:57:10.944Z,19.60
2022-12-13T07:59:37.651Z,19.60
2022-12-13T08:02:06.277Z,19.60
2022-12-13T08:04:37.689Z,19.60
2022-12-13T08:07:09.216Z,19.60
2022-12-13T08:09:36.609Z,19.60
2022-12-13T08:12:03.999Z,19.60
2022-12-13T08:14:31.201Z,19.60
2022-12-13T08:16:58.046Z,19.70
2022-12-13T08:19:24.739Z,19.70
2022-12-13T08:21:55.533Z,19.70
2022-12-13T08:24:27.688Z,19.70
2022-12-13T08:26:57.427Z,19.80
2022-12-13T08:29:34.006Z,19.80
2022-12-13T08:32:10.506Z,19.80
2022-12-13T08:34:37.556Z,19.90
2022-12-13T08:37:05.273Z,19.90
2022-12-13T08:39:35.356Z,19.90
2022-12-13T08:42:16.018Z,19.90
2022-12-13T08:44:49.959Z,19.90
2022-12-13T08:47:24.748Z,20.00
2022-12-13T08:50:02.233Z,20.00
2022-12-13T08:52:39.206Z,20.00
2022-12-13T08:55:09.223Z,20.00
2022-12-13T08:57:37.038Z,20.00
2022-12-13T09:00:09.435Z,20.10
2022-12-13T09:02:38.080Z,20.10
2022-12-13T09:05:07.222Z,20.10
2022-12-13T09:07:36.098Z,20.10
2022-12-13T09:10:25.894Z,20.10
2022-12-13T09:12:51.407Z,20.10
2022-12-13T09:15:22.225Z,20.10
2022-12-13T09:17:52.028Z,20.20
2022-12-13T09:20:29.236Z,20.10
2022-12-13T09:23:01.263Z,20.20
2022-12-13T09:25:29.484Z,20.20
2022-12-13T09:28:08.568Z,20.20
2022-12-13T09:30:38.429Z,20.20
2022-12-13T09:33:18.329Z,20.30
2022-12-13T09:35:52.771Z,20.30
2022-12-13T09:38:20.052Z,20.40
2022-12-13T09:40:50.247Z,20.40
2022-12-13T09:43:32.796Z,20.40
2022-12-13T09:46:13.359Z,20.50
2022-12-13T09:49:01.643Z,20.50
2022-12-13T09:51:41.469Z,20.50
2022-12-13T09:54:19.317Z,20.50
2022-12-13T09:56:50.886Z,20.50
2022-12-13T09:59:23.102Z,20.50
2022-12-13T10:01:50.167Z,20.40
2022-12-13T10:04:17.832Z,20.40
2022-12-13T10:06:44.636Z,20.40
2022-12-13T10:09:14.189Z,20.40
2022-12-13T10:11:50.778Z,20.30
2022-12-13T10:14:40.948Z,20.30
2022-12-13T10:17:10.339Z,20.30
2022-12-13T10:19:40.485Z,20.30
2022-12-13T10:22:17.998Z,20.30
2022-12-13T10:24:55.330Z,20.30
2022-12-13T10:27:33.467Z,20.30
2022-12-13T10:30:28.034Z,20.30
2022-12-13T10:33:01.112Z,20.30
2022-12-13T10:35:29.193Z,20.30
2022-12-13T10:37:59.297Z,20.30
2022-12-13T10:40:34.749Z,20.30
2022-12-13T10:43:15.449Z,20.30
2022-12-13T10:45:49.307Z,20.20
2022-12-13T10:48:21.420Z,20.20
2022-12-13T10:51:02.322Z,20.20
2022-12-13T10:53:49.524Z,20.20
2022-12-13T10:56:22.864Z,20.20
2022-12-13T10:59:13.373Z,20.20
2022-12-13T11:01:43.981Z,20.20
2022-12-13T11:04:31.464Z,20.20
2022-12-13T11:07:02.563Z,20.20
2022-12-13T11:09:38.676Z,20.10
2022-12-13T11:12:14.220Z,20.20
2022-12-13T11:14:57.035Z,20.20
2022-12-13T11:17:26.628Z,20.20
2022-12-13T11:19:57.221Z,20.10
2022-12-13T11:22:30.100Z,20.20
2022-12-13T11:25:03.219Z,20.10
2022-12-13T11:28:25.849Z,20.10
2022-12-13T11:31:15.366Z,20.10
2022-12-13T11:33:55.608Z,20.10
2022-12-13T11:36:46.719Z,20.10
2022-12-13T11:39:23.624Z,20.10
2022-12-13T11:42:10.580Z,20.10
2022-12-13T11:44:51.123Z,20.10
2022-12-13T11:47:26.370Z,20.10
2022-12-13T11:49:53.753Z,20.10
2022-12-13T11:52:39.161Z,20.10
2022-12-13T11:55:18.232Z,20.10
2022-12-13T11:58:32.475Z,20.10
2022-12-13T12:01:12.256Z,20.10
2022-12-13T12:03:51.996Z,20.10
2022-12-13T12:06:22.729Z,20.10
2022-12-13T12:09:02.724Z,20.10
2022-12-13T12:11:53.430Z,20.10
2022-12-13T12:14:52.317Z,20.10
2022-12-13T12:17:23.850Z,20.10
2022-12-13T12:19:54.321Z,20.10
2022-12-13T12:23:02.117Z,20.10
2022-12-13T12:25:29.116Z,20.10
2022-12-13T12:28:10.049Z,20.10
2022-12-13T12:30:49.673Z,20.10
2022-12-13T12:33:41.075Z,20.10
2022-12-13T12:36:33.808Z,20.10
2022-12-13T12:39:37.896Z,20.10
2022-12-13T12:42:16.741Z,20.10
2022-12-13T12:44:49.606Z,20.00
2022-12-13T12:50:47.607Z,20.00
2022-12-13T12:53:36.155Z,20.00
2022-12-13T12:56:28.887Z,20.00
2022-12-13T12:59:27.647Z,20.00
2022-12-13T13:02:18.201Z,20.00
2022-12-13T13:05:00.047Z,20.00
2022-12-13T13:07:39.621Z,19.90
2022-12-13T13:10:16.529Z,19.90
2022-12-13T13:12:53.646Z,19.90
2022-12-13T13:15:40.368Z,19.90
2022-12-13T13:18:46.002Z,19.90
2022-12-13T13:21:55.261Z,19.90
2022-12-13T13:24:31.307Z,19.90
2022-12-13T13:27:19.162Z,19.80
2022-12-13T13:29:46.120Z,19.80
2022-12-13T13:32:12.859Z,19.80
2022-12-13T13:35:28.411Z,19.90
2022-12-13T13:37:55.694Z,19.80
2022-12-13T13:40:31.458Z,19.80
2022-12-13T13:43:08.403Z,19.80
2022-12-13T13:46:11.632Z,19.80
2022-12-13T13:48:40.994Z,19.80
2022-12-13T13:52:24.524Z,19.80
2022-12-13T13:55:25.549Z,19.80
2022-12-13T13:58:33.230Z,19.80
2022-12-13T14:01:37.977Z,19.70
2022-12-13T14:04:41.961Z,19.80
2022-12-13T14:07:18.851Z,19.80
2022-12-13T14:10:21.491Z,19.70
2022-12-13T14:13:25.971Z,19.70
2022-12-13T14:16:12.048Z,19.70
2022-12-13T14:19:11.420Z,19.70
2022-12-13T14:22:12.971Z,19.70
2022-12-13T14:25:04.124Z,19.70
2022-12-13T14:28:01.123Z,19.70
2022-12-13T14:30:29.536Z,19.70
2022-12-13T14:32:57.478Z,19.70
2022-12-13T14:35:31.175Z,19.70
2022-12-13T14:38:06.241Z,19.60
2022-12-13T14:40:35.903Z,19.60
2022-12-13T14:43:04.106Z,19.60
2022-12-13T14:45:36.715Z,19.60
2022-12-13T14:48:15.386Z,19.60
2022-12-13T14:50:44.716Z,19.60
2022-12-13T14:53:30.649Z,19.60
2022-12-13T14:56:04.794Z,19.60
2022-12-13T14:58:31.926Z,19.60
2022-12-13T15:00:58.836Z,19.60
2022-12-13T15:03:27.776Z,19.60
2022-12-13T15:05:57.800Z,19.60
2022-12-13T15:08:25.336Z,19.60
2022-12-13T15:10:59.783Z,19.60
2022-12-13T15:13:34.434Z,19.60
2022-12-13T15:16:10.619Z,19.60
2022-12-13T15:18:38.571Z,19.60
2022-12-13T15:21:23.968Z,19.60
2022-12-13T15:23:52.825Z,19.50
2022-12-13T15:26:28.266Z,19.50
2022-12-13T15:29:01.844Z,19.50
2022-12-13T15:31:37.895Z,19.50
2022-12-13T15:34:35.190Z,19.50
2022-12-13T15:37:29.606Z,19.50
2022-12-13T15:40:00.681Z,19.50
2022-12-13T15:42:36.127Z,19.50
2022-12-13T15:45:15.928Z,19.50
2022-12-13T15:47:47.907Z,19.50
2022-12-13T15:50:50.274Z,19.50
2022-12-13T15:53:26.645Z,19.50
2022-12-13T15:55:53.897Z,19.50
2022-12-13T15:58:39.657Z,19.50
2022-12-13T16:01:06.580Z,19.50
2022-12-13T16:03:43.356Z,19.50
2022-12-13T16:06:18.039Z,19.50
2022-12-13T16:08:49.428Z,19.40
2022-12-13T16:11:25.144Z,19.40
2022-12-13T16:13:51.983Z,19.40
2022-12-13T16:16:30.625Z,19.40
2022-12-13T16:18:59.726Z,19.40
2022-12-13T16:21:27.913Z,19.40
2022-12-13T16:23:54.910Z,19.40
2022-12-13T16:26:28.105Z,19.40
2022-12-13T16:28:58.673Z,19.40
2022-12-13T16:31:27.971Z,19.40
2022-12-13T16:33:54.779Z,19.40
2022-12-13T16:36:21.482Z,19.40
2022-12-13T16:38:48.254Z,19.40
2022-12-13T16:41:15.688Z,19.40
2022-12-13T16:43:58.903Z,19.40
2022-12-13T16:47:18.275Z,19.40
2022-12-13T16:49:25.895Z,19.40
2022-12-13T16:51:53.920Z,19.40
2022-12-13T16:54:22.125Z,19.40
2022-12-13T16:56:49.717Z,19.40
2022-12-13T16:59:18.967Z,19.40
2022-12-13T17:01:46.482Z,19.40
2022-12-13T17:04:21.061Z,19.40
2022-12-13T17:06:50.192Z,19.40
2022-12-13T17:09:18.010Z,19.40
2022-12-13T17:11:45.277Z,19.50
2022-12-13T17:14:12.019Z,19.50
2022-12-13T17:16:38.827Z,19.50
2022-12-13T17:22:46.972Z,19.60
2022-12-13T17:25:14.357Z,19.70
2022-12-13T17:27:41.532Z,19.70
2022-12-13T17:30:12.970Z,19.70
2022-12-13T17:32:39.753Z,19.80
2022-12-13T17:35:07.031Z,19.80
2022-12-13T17:37:34.019Z,19.70
2022-12-13T17:40:00.803Z,19.80
2022-12-13T17:42:27.529Z,19.80
2022-12-13T17:44:54.336Z,19.80
2022-12-13T17:47:21.088Z,19.80
2022-12-13T17:49:47.855Z,19.80
2022-12-13T17:52:14.592Z,19.80
2022-12-13T17:54:41.337Z,19.80
2022-12-13T17:57:10.348Z,19.80
2022-12-13T17:59:43.172Z,19.90
2022-12-13T18:02:12.534Z,19.90
2022-12-13T18:04:39.452Z,19.90
2022-12-13T18:07:06.141Z,19.90
2022-12-13T18:09:32.840Z,19.90
2022-12-13T18:11:59.576Z,19.90
2022-12-13T18:14:26.423Z,19.90
2022-12-13T18:16:53.123Z,19.90
2022-12-13T18:19:19.889Z,19.90
2022-12-13T18:21:48.221Z,19.90
2022-12-13T18:24:14.953Z,19.90
2022-12-13T18:26:41.808Z,19.90
2022-12-13T18:29:09.161Z,19.90
2022-12-13T18:31:35.961Z,19.90
2022-12-13T18:34:02.816Z,19.90
2022-12-13T18:36:29.989Z,19.90
2022-12-13T18:38:57.148Z,19.90
2022-12-13T18:41:28.215Z,20.00
2022-12-13T18:43:59.458Z,20.00
2022-12-13T18:46:28.073Z,20.00
2022-12-13T18:48:55.145Z,20.00
2022-12-13T18:51:21.851Z,20.00
2022-12-13T18:53:48.555Z,20.00
2022-12-13T18:56:19.212Z,20.00
2022-12-13T18:58:48.288Z,20.00
2022-12-13T19:01:16.290Z,20.00
2022-12-13T19:03:45.816Z,20.00
2022-12-13T19:06:17.483Z,20.00
2022-12-13T19:08:46.758Z,20.00
2022-12-13T19:11:13.499Z,20.10
2022-12-13T19:13:41.156Z,20.00
2022-12-13T19:16:11.160Z,20.10
2022-12-13T19:18:38.180Z,20.10
2022-12-13T19:21:10.317Z,20.10
2022-12-13T19:23:37.244Z,20.10
2022-12-13T19:26:13.210Z,20.10
2022-12-13T19:28:41.575Z,20.10
2022-12-13T19:31:11.035Z,20.10
2022-12-13T19:33:37.986Z,20.10
2022-12-13T19:36:05.965Z,20.10
2022-12-13T19:38:33.036Z,20.10
2022-12-13T19:40:59.867Z,20.10
2022-12-13T19:43:27.295Z,20.10
2022-12-13T19:45:54.218Z,20.10
2022-12-13T19:48:20.926Z,20.10
2022-12-13T19:50:47.711Z,20.20
2022-12-13T19:53:14.492Z,20.10
2022-12-13T19:55:45.429Z,20.10
2022-12-13T19:58:15.160Z,20.10
2022-12-13T20:00:41.959Z,20.10
2022-12-13T20:03:08.857Z,20.10
2022-12-13T20:05:36.157Z,20.10
2022-12-13T20:08:05.176Z,20.10
2022-12-13T20:10:34.860Z,20.10
2022-12-13T20:13:01.682Z,20.10
2022-12-13T20:15:28.696Z,20.10
2022-12-13T20:17:55.416Z,20.00
2022-12-13T20:20:25.710Z,20.10
2022-12-13T20:22:58.398Z,20.10
2022-12-13T20:25:25.118Z,20.10
2022-12-13T20:27:51.832Z,20.10
2022-12-13T20:30:18.678Z,20.10
2022-12-13T20:32:45.418Z,20.10
2022-12-13T20:35:12.103Z,20.10
2022-12-13T20:37:38.875Z,20.10
2022-12-13T20:40:06.131Z,20.10
2022-12-13T20:42:33.383Z,20.10
2022-12-13T20:45:00.235Z,20.10
2022-12-13T20:47:27.135Z,20.10
2022-12-13T20:49:53.828Z,20.10
2022-12-13T20:52:20.580Z,20.00
2022-12-13T20:54:47.297Z,20.00
2022-12-13T20:57:13.979Z,20.10
2022-12-13T20:59:40.876Z,20.00
2022-12-13T21:02:07.623Z,20.00
2022-12-13T21:04:34.365Z,20.00
2022-12-13T21:07:02.629Z,20.00
2022-12-13T21:09:29.337Z,20.00
2022-12-13T21:11:56.111Z,20.00
2022-12-13T21:14:25.673Z,20.00
2022-12-13T21:17:04.618Z,20.00
2022-12-13T21:19:39.797Z,20.00
2022-12-13T21:22:07.321Z,20.00
2022-12-13T21:24:34.056Z,20.00
2022-12-13T21:27:00.963Z,20.00
2022-12-13T21:29:27.820Z,20.00
2022-12-13T21:31:55.182Z,20.00
2022-12-13T21:34:22.524Z,20.10
2022-12-13T21:36:52.201Z,20.10
2022-12-13T21:39:24.426Z,20.10
2022-12-13T21:41:52.094Z,20.10
2022-12-13T21:44:18.995Z,20.10
2022-12-13T21:49:32.576Z,20.10
2022-12-13T21:51:59.276Z,20.10
2022-12-13T21:54:26.001Z,20.00
2022-12-13T21:57:12.897Z,20.00
2022-12-13T21:59:39.645Z,20.00
2022-12-13T22:02:16.183Z,20.00
2022-12-13T22:05:10.158Z,20.00
2022-12-13T22:07:38.020Z,20.00
2022-12-13T22:10:05.463Z,20.10
2022-12-13T22:12:37.973Z,20.10
2022-12-13T22:15:07.165Z,20.10
2022-12-13T22:17:36.106Z,20.10
2022-12-13T22:20:05.720Z,20.10
2022-12-13T22:22:32.586Z,20.10
2022-12-13T22:24:59.430Z,20.10
2022-12-13T22:27:26.337Z,20.10
2022-12-13T22:29:56.733Z,20.10
2022-12-13T22:32:26.964Z,20.10
2022-12-13T22:34:53.843Z,20.10
2022-12-13T22:37:20.594Z,20.10
2022-12-13T22:39:47.390Z,20.10
2022-12-13T22:42:14.184Z,20.10
2022-12-13T22:44:40.875Z,20.20
2022-12-13T22:47:07.683Z,20.10
2022-12-13T22:49:34.626Z,20.10
2022-12-13T22:52:01.332Z,20.10
2022-12-13T22:54:28.033Z,20.10
2022-12-13T22:56:54.796Z,20.10
2022-12-13T22:59:21.531Z,20.10
2022-12-13T23:01:48.519Z,20.10
2022-12-13T23:04:15.430Z,20.10
2022-12-13T23:06:42.591Z,20.10
2022-12-13T23:09:12.689Z,20.10
2022-12-13T23:11:58.357Z,20.00
2022-12-13T23:14:31.081Z,20.00
2022-12-13T23:16:58.093Z,20.00
2022-12-13T23:19:41.572Z,20.00
2022-12-13T23:22:12.181Z,20.00
2022-12-13T23:24:38.962Z,20.00
2022-12-13T23:27:05.706Z,20.00
2022-12-13T23:29:32.442Z,20.00
2022-12-13T23:31:59.133Z,19.90
2022-12-13T23:34:25.825Z,19.90
2022-12-13T23:36:52.533Z,19.90
2022-12-13T23:39:19.254Z,19.90
2022-12-13T23:41:46.189Z,19.90
2022-12-13T23:44:12.997Z,19.90
2022-12-13T23:46:39.703Z,19.90
2022-12-13T23:49:06.928Z,19.90
2022-12-13T23:51:34.635Z,19.90
2022-12-13T23:54:01.624Z,19.90
2022-12-13T23:56:29.625Z,19.90
2022-12-13T23:58:56.547Z,19.90
